»·PEaware :: SWA21 KDEN-KABQ

SWA21 :: KDEN-KABQ

FLIGHT INFORMATION

Flight Status: Arrived
Operator:
Southwest Airlines
More flights by this operator :: More flights under this callsign
Pilot: Ben F. (13029)
Aircraft: BOEING 737-700
(B737)
More flights by this aircraft type
Origin: KDEN Denver Intl
United States
Destination: KABQ Albuquerque Intl Sunport
United States
More flights between these airports :: More routes between these airports
Route: SPAZZ4 ZAPAA DATME SNDIA3
File this flight plan on PilotEdge
Remarks:
Altitude:
(Current/Filed)
32,000ft
Speed:
(Current/Filed)
410kts
Departed: 26-May-19 03:25 PM
Arrived: 26-May-19 04:18 PM
Distance/Time
Traveled:
303nm/0:52
Distance/Time
To Go:
Arrived

Flight Plot

Page will automatically refresh every two minutes.

Flight plan parsing failed; only flown route is shown


Map Options




Map Legend


Flown Route
Filed Route
Departure Airport
Arrival Airport
Navaid (VOR, NDB)
Fix

Horizontal Profiles

Position Reports

Time Latitude Longitude Heading Altitude Ground
Speed
26-May-19 14:58 39.862532 -104.676840 359 5324ft 0kts
26-May-19 14:59 39.862532 -104.676840 359 5324ft 0kts
26-May-19 15:01 39.862532 -104.676840 359 5324ft 0kts
26-May-19 15:01 39.862532 -104.676840 359 5324ft 0kts
26-May-19 15:02 39.862532 -104.676840 359 5324ft 0kts
26-May-19 15:03 39.862532 -104.676840 359 5324ft 0kts
26-May-19 15:04 39.862532 -104.676840 359 5324ft 0kts
26-May-19 15:05 39.862532 -104.676840 359 5324ft 0kts
26-May-19 15:06 39.862532 -104.676840 359 5324ft 0kts
26-May-19 15:07 39.862532 -104.676840 359 5324ft 0kts
26-May-19 15:08 39.862532 -104.676840 359 5324ft 0kts
26-May-19 15:09 39.862532 -104.676840 359 5324ft 0kts
26-May-19 15:10 39.862532 -104.676840 359 5324ft 0kts
26-May-19 15:11 39.862532 -104.676840 359 5324ft 0kts
26-May-19 15:12 39.862532 -104.676840 359 5324ft 0kts
26-May-19 15:13 39.862532 -104.676840 359 5324ft 0kts
26-May-19 15:14 39.862262 -104.676810 336 5324ft 2kts
26-May-19 15:15 39.861970 -104.676272 269 5324ft 1kts
26-May-19 15:16 39.861973 -104.676189 267 5324ft 0kts
26-May-19 15:17 39.861973 -104.676189 267 5324ft 0kts
26-May-19 15:18 39.861973 -104.676189 267 5324ft 0kts
26-May-19 15:19 39.861351 -104.677966 271 5324ft 13kts
26-May-19 15:20 39.861388 -104.684328 274 5324ft 17kts
26-May-19 15:21 39.864263 -104.685687 270 5324ft 0kts
26-May-19 15:22 39.864263 -104.685687 270 5324ft 0kts
26-May-19 15:23 39.864384 -104.687049 317 5324ft 7kts
26-May-19 15:24 39.894965 -104.692708 326 6344ft 206kts
26-May-19 15:25 39.884962 -104.766812 227 8567ft 260kts
26-May-19 15:26 39.834188 -104.836350 226 9996ft 267kts
26-May-19 15:27 39.773945 -104.914375 207 12482ft 330kts
26-May-19 15:28 39.682099 -104.920089 169 16680ft 351kts
26-May-19 15:29 39.588426 -104.880794 151 20392ft 371kts
26-May-19 15:30 39.499728 -104.819058 155 22986ft 391kts
26-May-19 15:31 39.410922 -104.775154 164 23002ft 387kts
26-May-19 15:32 39.303871 -104.753344 176 23000ft 387kts
26-May-19 15:33 39.195966 -104.746378 177 22999ft 387kts
26-May-19 15:34 39.088024 -104.746587 186 23149ft 397kts
26-May-19 15:35 38.980606 -104.779682 201 26411ft 408kts
26-May-19 15:36 38.874941 -104.842125 205 29086ft 425kts
26-May-19 15:37 38.765950 -104.909788 205 31606ft 439kts
26-May-19 15:38 38.655677 -104.984526 208 31999ft 450kts
26-May-19 15:39 38.544887 -105.060202 208 32000ft 450kts
26-May-19 15:40 38.434737 -105.135330 208 31999ft 450kts
26-May-19 15:41 38.324751 -105.210411 208 31999ft 450kts
26-May-19 15:42 38.214308 -105.285821 208 31999ft 450kts
26-May-19 15:43 38.104256 -105.360998 208 31999ft 450kts
26-May-19 15:44 37.994296 -105.436156 208 31999ft 450kts
26-May-19 15:45 37.884102 -105.511505 208 31999ft 450kts
26-May-19 15:46 37.773921 -105.586879 208 31999ft 450kts
26-May-19 15:47 37.660093 -105.652134 199 31999ft 450kts
26-May-19 15:48 37.542345 -105.706621 200 31999ft 450kts
26-May-19 15:49 37.424239 -105.761611 200 31999ft 450kts
26-May-19 15:50 37.307204 -105.816123 200 31999ft 450kts
26-May-19 15:51 37.189670 -105.870878 200 31999ft 450kts
26-May-19 15:52 37.072625 -105.925420 200 31999ft 450kts
26-May-19 15:53 36.955539 -105.979996 200 31999ft 450kts
26-May-19 15:54 36.837738 -106.034911 200 31999ft 450kts
26-May-19 15:55 36.720240 -106.089701 200 31999ft 450kts
26-May-19 15:56 36.602443 -106.143562 199 31999ft 450kts
26-May-19 15:57 36.485013 -106.195694 199 32007ft 444kts
26-May-19 15:58 36.368901 -106.247386 199 32009ft 445kts
26-May-19 15:59 36.251616 -106.299133 199 30520ft 445kts
26-May-19 16:00 36.137818 -106.349187 199 27919ft 420kts
26-May-19 16:01 36.030386 -106.395719 199 25458ft 399kts
26-May-19 16:02 35.927759 -106.439929 199 23098ft 380kts
26-May-19 16:03 35.830541 -106.480119 198 21101ft 358kts
26-May-19 16:04 35.737852 -106.517828 198 19083ft 343kts
26-May-19 16:05 35.649175 -106.553961 198 17212ft 332kts
26-May-19 16:06 35.560496 -106.594016 204 15506ft 324kts
26-May-19 16:07 35.482422 -106.636575 204 14487ft 291kts
26-May-19 16:08 35.404814 -106.678341 203 13263ft 308kts
26-May-19 16:09 35.326141 -106.716784 185 11401ft 300kts
26-May-19 16:10 35.257848 -106.675972 123 10080ft 260kts
26-May-19 16:11 35.223519 -106.605397 133 9080ft 226kts
26-May-19 16:12 35.166530 -106.564117 153 8675ft 239kts
26-May-19 16:13 35.112936 -106.530691 152 8203ft 203kts
26-May-19 16:14 35.062096 -106.507579 194 7099ft 175kts
26-May-19 16:15 35.044106 -106.548340 268 6070ft 135kts
26-May-19 16:16 35.044154 -106.589093 269 5316ft 53kts
26-May-19 16:17 35.045087 -106.591445 54 5316ft 0kts
26-May-19 16:18 35.045847 -106.594438 268 5316ft 32kts
26-May-19 16:19 35.045760 -106.605570 270 5316ft 31kts
26-May-19 16:20 35.045906 -106.614521 294 5316ft 9kts
26-May-19 16:21 35.046838 -106.614902 8 5316ft 0kts
26-May-19 16:22 35.046838 -106.614902 8 5316ft 0kts
26-May-19 16:23 35.046838 -106.614902 8 5316ft 0kts

Navigation Log

Ident Type
Flight plan parsing failed, navigation log unavailable